createdAt,value
2018-09-28T00:03:23.530Z,9.00
2018-09-28T00:08:27.408Z,9.10
2018-09-28T00:13:31.046Z,9.40
2018-09-28T00:18:34.750Z,9.00
2018-09-28T00:23:38.381Z,9.20
2018-09-28T00:28:42.922Z,9.20
2018-09-28T00:33:47.523Z,8.90
2018-09-28T00:38:52.086Z,8.90
2018-09-28T00:43:55.675Z,9.00
2018-09-28T00:48:59.282Z,8.80
2018-09-28T00:54:02.987Z,8.70
2018-09-28T00:59:06.530Z,8.60
2018-09-28T01:04:10.339Z,8.50
2018-09-28T01:09:15.322Z,8.50
2018-09-28T01:14:18.886Z,8.90
2018-09-28T01:19:22.483Z,8.70
2018-09-28T01:24:26.237Z,8.40
2018-09-28T01:29:30.052Z,8.40
2018-09-28T01:34:33.592Z,8.20
2018-09-28T01:39:37.212Z,8.10
2018-09-28T01:44:40.911Z,8.10
2018-09-28T01:49:44.447Z,8.00
2018-09-28T01:54:48.432Z,8.10
2018-09-28T01:59:52.255Z,8.40
2018-09-28T02:04:56.707Z,8.10
2018-09-28T02:10:01.379Z,8.00
2018-09-28T02:15:05.035Z,7.90
2018-09-28T02:20:08.931Z,7.80
2018-09-28T02:25:14.456Z,7.70
2018-09-28T02:30:18.358Z,7.70
2018-09-28T02:35:23.094Z,9.00
2018-09-28T02:40:26.902Z,7.60
2018-09-28T02:45:30.585Z,7.60
2018-09-28T02:50:34.122Z,7.70
2018-09-28T02:55:37.751Z,7.70
2018-09-28T03:00:41.505Z,7.60
2018-09-28T03:05:45.114Z,7.60
2018-09-28T03:10:48.722Z,7.30
2018-09-28T03:15:52.395Z,7.30
2018-09-28T03:20:56.026Z,7.20
2018-09-28T03:26:00.759Z,7.30
2018-09-28T03:31:04.431Z,7.30
2018-09-28T03:36:32.867Z,7.30
2018-09-28T03:41:37.655Z,7.30
2018-09-28T03:46:49.246Z,7.40
2018-09-28T03:51:52.878Z,7.20
2018-09-28T03:57:08.253Z,7.20
2018-09-28T04:02:11.910Z,7.10
2018-09-28T04:07:15.602Z,7.10
2018-09-28T04:12:19.159Z,7.20
2018-09-28T04:17:22.798Z,7.30
2018-09-28T04:22:26.622Z,7.10
2018-09-28T04:27:30.280Z,7.10
2018-09-28T04:32:33.886Z,6.90
2018-09-28T04:37:38.095Z,6.80
2018-09-28T04:42:41.802Z,6.80
2018-09-28T04:47:45.313Z,6.90
2018-09-28T04:52:49.090Z,6.80
2018-09-28T04:57:52.673Z,6.70
2018-09-28T05:02:58.858Z,6.70
2018-09-28T05:08:02.577Z,6.60
2018-09-28T05:13:06.271Z,6.60
2018-09-28T05:18:09.846Z,6.60
2018-09-28T05:23:13.568Z,6.60
2018-09-28T05:28:18.287Z,6.70
2018-09-28T05:33:25.985Z,6.70
2018-09-28T05:38:29.803Z,6.90
2018-09-28T05:43:33.483Z,6.70
2018-09-28T05:48:37.140Z,6.90
2018-09-28T05:53:40.786Z,6.80
2018-09-28T05:58:50.787Z,6.80
2018-09-28T06:03:59.841Z,6.80
2018-09-28T06:09:03.739Z,6.70
2018-09-28T06:14:07.670Z,6.70
2018-09-28T06:19:11.803Z,6.90
2018-09-28T06:24:15.589Z,7.00
2018-09-28T06:29:19.243Z,7.10
2018-09-28T06:34:23.127Z,7.30
2018-09-28T06:39:27.683Z,7.60
2018-09-28T06:44:34.683Z,7.80
2018-09-28T06:49:38.300Z,7.90
2018-09-28T06:54:41.947Z,8.10
2018-09-28T06:59:45.692Z,8.30
2018-09-28T07:04:49.194Z,8.70
2018-09-28T07:09:52.751Z,9.10
2018-09-28T07:14:56.305Z,9.70
2018-09-28T07:20:00.088Z,9.50
2018-09-28T07:25:03.839Z,9.40
2018-09-28T07:30:07.621Z,9.80
2018-09-28T07:35:11.533Z,10.80
2018-09-28T07:40:15.315Z,11.60
2018-09-28T07:45:19.298Z,12.00
2018-09-28T07:50:23.005Z,12.40
2018-09-28T07:55:26.637Z,12.70
2018-09-28T08:00:31.354Z,13.00
2018-09-28T08:05:34.978Z,13.20
2018-09-28T08:10:38.559Z,13.70
2018-09-28T08:15:42.310Z,14.10
2018-09-28T08:20:51.980Z,14.10
2018-09-28T08:25:55.739Z,15.00
2018-09-28T08:30:59.350Z,14.90
2018-09-28T08:36:02.928Z,17.20
2018-09-28T08:41:08.487Z,19.70
2018-09-28T08:46:12.078Z,17.90
2018-09-28T08:51:20.506Z,17.10
2018-09-28T08:56:24.191Z,16.20
2018-09-28T09:01:28.956Z,15.70
2018-09-28T09:06:33.571Z,15.80
2018-09-28T09:11:40.832Z,15.70
2018-09-28T09:16:46.252Z,15.50
2018-09-28T09:21:50.159Z,15.50
2018-09-28T09:26:54.108Z,15.50
2018-09-28T09:31:58.026Z,15.70
2018-09-28T09:37:04.655Z,15.90
2018-09-28T09:42:08.639Z,16.10
2018-09-28T09:47:15.738Z,15.90
2018-09-28T09:52:24.201Z,15.90
2018-09-28T09:57:28.516Z,16.00
2018-09-28T10:02:37.892Z,15.90
2018-09-28T10:07:41.849Z,15.90
2018-09-28T10:12:45.760Z,15.80
2018-09-28T10:17:49.695Z,15.70
2018-09-28T10:22:53.612Z,15.80
2018-09-28T10:27:58.398Z,15.60
2018-09-28T10:33:03.103Z,15.60
2018-09-28T10:38:07.403Z,15.40
2018-09-28T10:43:11.180Z,15.50
2018-09-28T10:48:14.990Z,15.50
2018-09-28T10:53:19.291Z,15.40
2018-09-28T10:58:23.300Z,15.70
2018-09-28T11:03:28.044Z,16.00
2018-09-28T11:08:33.568Z,16.00
2018-09-28T11:13:37.310Z,15.70
2018-09-28T11:18:40.899Z,15.60
2018-09-28T11:23:44.479Z,15.60
2018-09-28T11:28:48.170Z,15.60
2018-09-28T11:33:52.863Z,15.50
2018-09-28T11:38:56.478Z,15.40
2018-09-28T11:44:03.443Z,15.40
2018-09-28T11:49:07.393Z,15.30
2018-09-28T11:54:11.110Z,15.20
2018-09-28T11:59:15.060Z,15.00
2018-09-28T12:04:18.779Z,14.90
2018-09-28T12:09:22.526Z,14.80
2018-09-28T12:14:26.266Z,14.80
2018-09-28T12:19:30.014Z,14.80
2018-09-28T12:24:33.818Z,14.80
2018-09-28T12:29:37.544Z,14.90
2018-09-28T12:34:41.240Z,15.00
2018-09-28T12:39:45.226Z,15.00
2018-09-28T12:44:49.822Z,14.90
2018-09-28T12:49:53.507Z,14.90
2018-09-28T12:54:57.187Z,14.90
2018-09-28T13:00:00.818Z,14.90
2018-09-28T13:05:04.576Z,14.80
2018-09-28T13:10:08.186Z,14.80
2018-09-28T13:15:12.176Z,14.80
2018-09-28T13:20:15.648Z,14.80
2018-09-28T13:25:19.227Z,14.80
2018-09-28T13:30:23.994Z,14.70
2018-09-28T13:35:27.777Z,14.70
2018-09-28T13:40:31.393Z,14.80
2018-09-28T13:45:35.204Z,14.80
2018-09-28T13:50:39.992Z,14.80
2018-09-28T13:55:43.672Z,14.90
2018-09-28T14:00:47.460Z,14.70
2018-09-28T14:05:53.003Z,14.50
2018-09-28T14:10:57.206Z,14.40
2018-09-28T14:16:03.135Z,14.70
2018-09-28T14:21:07.301Z,14.80
2018-09-28T14:26:12.325Z,14.70
2018-09-28T14:31:16.257Z,14.50
2018-09-28T14:36:20.958Z,14.70
2018-09-28T14:41:24.634Z,14.60
2018-09-28T14:46:28.475Z,14.70
2018-09-28T14:51:32.559Z,14.70
2018-09-28T14:56:37.532Z,14.70
2018-09-28T15:01:41.278Z,14.80
2018-09-28T15:06:44.906Z,14.80
2018-09-28T15:11:50.482Z,14.80
2018-09-28T15:22:31.115Z,14.70
2018-09-28T15:27:35.875Z,14.80
2018-09-28T15:32:39.714Z,14.70
2018-09-28T15:37:43.503Z,14.50
2018-09-28T15:42:48.270Z,14.60
2018-09-28T15:47:51.813Z,14.60
2018-09-28T15:52:55.459Z,14.60
2018-09-28T15:58:00.073Z,14.50
2018-09-28T16:03:03.692Z,14.60
2018-09-28T16:08:07.342Z,14.40
2018-09-28T16:13:10.975Z,14.50
2018-09-28T16:18:14.655Z,14.40
2018-09-28T16:23:19.065Z,14.30
2018-09-28T16:28:23.666Z,14.30
2018-09-28T16:33:28.558Z,14.50
2018-09-28T16:38:32.423Z,14.10
2018-09-28T16:43:37.486Z,14.10
2018-09-28T16:48:42.572Z,14.00
2018-09-28T16:53:46.942Z,14.00
2018-09-28T16:58:50.666Z,14.20
2018-09-28T17:03:54.198Z,14.00
2018-09-28T17:08:58.846Z,13.70
2018-09-28T17:14:02.465Z,12.70
2018-09-28T17:19:06.269Z,12.20
2018-09-28T17:24:09.858Z,11.90
2018-09-28T17:29:13.500Z,12.20
2018-09-28T17:34:17.301Z,13.20
2018-09-28T17:39:20.952Z,13.20
2018-09-28T17:44:25.856Z,13.40
2018-09-28T17:49:29.614Z,13.60
2018-09-28T17:54:34.287Z,12.60
2018-09-28T17:59:38.049Z,11.80
2018-09-28T18:04:41.764Z,11.40
2018-09-28T18:09:46.233Z,11.30
2018-09-28T18:14:49.937Z,11.20
2018-09-28T18:19:53.556Z,11.10
2018-09-28T18:24:57.175Z,10.80
2018-09-28T18:30:00.898Z,10.70
2018-09-28T18:35:04.728Z,10.30
2018-09-28T18:40:08.730Z,10.10
2018-09-28T18:45:12.419Z,10.20
2018-09-28T18:50:16.129Z,9.90
2018-09-28T18:55:19.776Z,9.50
2018-09-28T19:00:23.506Z,9.50
2018-09-28T19:05:31.749Z,9.50
2018-09-28T19:10:35.834Z,9.40
2018-09-28T19:15:39.394Z,9.20
2018-09-28T19:20:45.394Z,9.00
2018-09-28T19:25:49.122Z,8.90
2018-09-28T19:30:53.877Z,8.70
2018-09-28T19:35:57.510Z,8.60
2018-09-28T19:41:01.154Z,8.60
2018-09-28T19:46:05.222Z,8.70
2018-09-28T19:51:08.944Z,9.10
2018-09-28T19:56:14.016Z,8.70
2018-09-28T20:01:17.716Z,8.60
2018-09-28T20:06:22.574Z,8.40
2018-09-28T20:11:26.312Z,8.30
2018-09-28T20:16:30.366Z,8.40
2018-09-28T20:21:34.481Z,8.40
2018-09-28T20:26:39.319Z,8.30
2018-09-28T20:31:43.107Z,8.10
2018-09-28T20:36:46.858Z,8.10
2018-09-28T20:41:50.494Z,8.30
2018-09-28T20:46:54.299Z,8.40
2018-09-28T20:51:58.975Z,8.80
2018-09-28T20:57:07.758Z,8.80
2018-09-28T21:02:11.410Z,8.30
2018-09-28T21:07:17.146Z,7.90
2018-09-28T21:12:20.725Z,8.10
2018-09-28T21:17:24.377Z,8.20
2018-09-28T21:22:27.925Z,8.40
2018-09-28T21:27:37.900Z,8.10
2018-09-28T21:32:44.129Z,8.50
2018-09-28T21:37:47.741Z,9.00
2018-09-28T21:42:55.022Z,9.30
2018-09-28T21:47:58.722Z,9.60
2018-09-28T21:53:02.285Z,9.60
2018-09-28T21:58:05.926Z,9.20
2018-09-28T22:03:10.044Z,8.50
2018-09-28T22:08:13.802Z,8.20
2018-09-28T22:13:19.470Z,7.80
2018-09-28T22:18:23.032Z,7.70
2018-09-28T22:23:26.833Z,7.60
2018-09-28T22:28:30.697Z,7.40
2018-09-28T22:33:34.425Z,7.40
2018-09-28T22:38:38.203Z,7.40
2018-09-28T22:43:43.911Z,7.30
2018-09-28T22:48:47.875Z,7.30
2018-09-28T22:53:56.946Z,7.10
2018-09-28T22:59:00.908Z,7.10
2018-09-28T23:04:04.729Z,7.10
2018-09-28T23:09:11.744Z,6.80
2018-09-28T23:14:16.060Z,6.70
2018-09-28T23:19:20.742Z,6.70
2018-09-28T23:24:24.443Z,6.80
2018-09-28T23:29:28.368Z,6.70
2018-09-28T23:34:32.048Z,6.60
2018-09-28T23:39:41.787Z,6.50
2018-09-28T23:44:51.168Z,6.50
2018-09-28T23:49:55.082Z,6.50
2018-09-28T23:55:01.993Z,6.60
